createdAt,value
2023-05-03T00:00:28.488Z,101178.47
2023-05-03T00:03:09.732Z,101183.28
2023-05-03T00:05:43.277Z,101177.63
2023-05-03T00:08:26.290Z,101169.59
2023-05-03T00:11:02.339Z,101172.03
2023-05-03T00:13:35.757Z,101174.84
2023-05-03T00:16:06.898Z,101166.38
2023-05-03T00:18:38.002Z,101171.63
2023-05-03T00:21:10.650Z,101175.66
2023-05-03T00:23:43.354Z,101166.34
2023-05-03T00:26:17.184Z,101168.34
2023-05-03T00:28:53.957Z,101173.19
2023-05-03T00:31:27.282Z,101163.91
2023-05-03T00:33:57.298Z,101163.09
2023-05-03T00:36:31.090Z,101163.91
2023-05-03T00:39:09.801Z,101163.88
2023-05-03T00:41:46.941Z,101167.09
2023-05-03T00:44:16.905Z,101177.59
2023-05-03T00:46:45.548Z,101169.47
2023-05-03T00:49:19.319Z,101168.28
2023-05-03T00:51:53.292Z,101175.16
2023-05-03T00:54:27.103Z,101169.53
2023-05-03T00:57:06.970Z,101172.34
2023-05-03T00:59:38.031Z,101172.34
2023-05-03T01:02:15.919Z,101174.31
2023-05-03T01:04:53.048Z,101165.44
2023-05-03T01:07:53.630Z,101160.25
2023-05-03T01:10:36.856Z,101164.28
2023-05-03T01:13:28.485Z,101172.75
2023-05-03T01:16:08.419Z,101164.69
2023-05-03T01:18:44.148Z,101170.28
2023-05-03T01:21:19.401Z,101169.84
2023-05-03T01:24:14.001Z,101173.09
2023-05-03T01:26:47.657Z,101167.03
2023-05-03T01:29:24.239Z,101171.41
2023-05-03T01:32:07.097Z,101169.84
2023-05-03T01:34:45.265Z,101166.97
2023-05-03T01:37:20.692Z,101182.72
2023-05-03T01:40:08.213Z,101173.06
2023-05-03T01:42:41.910Z,101167.41
2023-05-03T01:45:13.109Z,101162.94
2023-05-03T01:47:46.161Z,101166.59
2023-05-03T01:50:23.858Z,101165.34
2023-05-03T01:53:00.155Z,101157.66
2023-05-03T01:55:34.090Z,101165.34
2023-05-03T01:58:04.151Z,101172.94
2023-05-03T02:00:32.419Z,101170.13
2023-05-03T02:03:08.514Z,101159.66
2023-05-03T02:05:41.429Z,101174.19
2023-05-03T02:08:14.594Z,101172.13
2023-05-03T02:10:47.758Z,101182.25
2023-05-03T02:13:20.255Z,101183.44
2023-05-03T02:15:53.649Z,101185.41
2023-05-03T02:18:31.481Z,101178.53
2023-05-03T02:21:08.053Z,101181.38
2023-05-03T02:23:40.000Z,101180.59
2023-05-03T02:26:10.187Z,101180.19
2023-05-03T02:28:47.163Z,101184.25
2023-05-03T02:31:20.262Z,101183.81
2023-05-03T02:33:53.836Z,101179.75
2023-05-03T02:36:27.131Z,101180.97
2023-05-03T02:39:03.679Z,101181.81
2023-05-03T02:41:45.535Z,101179.38
2023-05-03T02:44:16.328Z,101178.94
2023-05-03T02:47:00.300Z,101179.31
2023-05-03T02:49:35.670Z,101185.84
2023-05-03T02:52:16.213Z,101171.31
2023-05-03T02:54:49.466Z,101191.50
2023-05-03T02:57:27.126Z,101186.59
2023-05-03T02:59:59.432Z,101183.72
2023-05-03T03:02:35.369Z,101184.94
2023-05-03T03:05:06.400Z,101193.41
2023-05-03T03:07:37.107Z,101194.19
2023-05-03T03:10:18.598Z,101197.44
2023-05-03T03:12:57.894Z,101188.53
2023-05-03T03:15:37.963Z,101198.66
2023-05-03T03:18:09.370Z,101203.81
2023-05-03T03:20:43.080Z,101203.81
2023-05-03T03:23:21.635Z,101199.41
2023-05-03T03:25:54.581Z,101203.81
2023-05-03T03:28:32.249Z,101203.00
2023-05-03T03:31:14.272Z,101209.47
2023-05-03T03:33:49.474Z,101204.22
2023-05-03T03:36:25.929Z,101207.84
2023-05-03T03:38:58.047Z,101212.22
2023-05-03T03:41:32.970Z,101219.84
2023-05-03T03:44:04.432Z,101221.94
2023-05-03T03:46:38.251Z,101211.84
2023-05-03T03:49:14.246Z,101216.25
2023-05-03T03:51:48.355Z,101223.97
2023-05-03T03:54:23.003Z,101223.56
2023-05-03T03:56:54.155Z,101227.59
2023-05-03T03:59:30.350Z,101225.53
2023-05-03T04:02:14.071Z,101231.22
2023-05-03T04:04:48.218Z,101231.22
2023-05-03T04:07:24.339Z,101231.59
2023-05-03T04:10:02.867Z,101235.25
2023-05-03T04:12:38.163Z,101234.88
2023-05-03T04:15:17.374Z,101239.25
2023-05-03T04:18:00.761Z,101236.06
2023-05-03T04:20:37.060Z,101243.28
2023-05-03T04:23:15.461Z,101239.25
2023-05-03T04:25:48.925Z,101248.13
2023-05-03T04:28:29.463Z,101244.47
2023-05-03T04:31:02.649Z,101240.81
2023-05-03T04:33:41.095Z,101251.34
2023-05-03T04:36:19.153Z,101254.19
2023-05-03T04:38:57.299Z,101256.63
2023-05-03T04:41:27.830Z,101254.56
2023-05-03T04:44:03.345Z,101258.59
2023-05-03T04:46:42.515Z,101259.81
2023-05-03T04:49:12.647Z,101263.91
2023-05-03T04:51:46.620Z,101264.28
2023-05-03T04:54:17.391Z,101271.63
2023-05-03T04:56:48.813Z,101267.16
2023-05-03T04:59:27.931Z,101272.00
2023-05-03T05:01:58.389Z,101273.22
2023-05-03T05:04:26.261Z,101272.81
2023-05-03T05:06:59.565Z,101274.03
2023-05-03T05:09:32.840Z,101273.22
2023-05-03T05:12:04.198Z,101273.22
2023-05-03T05:14:40.642Z,101272.41
2023-05-03T05:17:15.578Z,101277.22
2023-05-03T05:19:49.112Z,101278.00
2023-05-03T05:22:22.794Z,101277.72
2023-05-03T05:25:09.028Z,101278.81
2023-05-03T05:27:45.476Z,101286.53
2023-05-03T05:30:25.285Z,101286.19
2023-05-03T05:32:58.532Z,101279.28
2023-05-03T05:35:38.333Z,101285.78
2023-05-03T05:38:09.491Z,101286.28
2023-05-03T05:40:45.966Z,101284.59
2023-05-03T05:43:28.002Z,101291.38
2023-05-03T05:46:03.845Z,101296.25
2023-05-03T05:48:37.219Z,101295.06
2023-05-03T05:51:10.413Z,101295.91
2023-05-03T05:53:48.828Z,101297.13
2023-05-03T05:56:24.151Z,101299.38
2023-05-03T05:59:07.030Z,101293.25
2023-05-03T06:01:47.306Z,101297.31
2023-05-03T06:04:32.705Z,101297.41
2023-05-03T06:07:08.205Z,101300.41
2023-05-03T06:09:46.927Z,101307.38
2023-05-03T06:12:28.036Z,101299.72
2023-05-03T06:15:02.863Z,101308.06
2023-05-03T06:17:48.017Z,101304.28
2023-05-03T06:20:21.995Z,101299.94
2023-05-03T06:23:01.931Z,101302.25
2023-05-03T06:25:56.893Z,101301.50
2023-05-03T06:28:33.554Z,101302.31
2023-05-03T06:31:09.221Z,101302.88
2023-05-03T06:33:41.701Z,101297.25
2023-05-03T06:36:17.304Z,101298.13
2023-05-03T06:38:53.817Z,101307.78
2023-05-03T06:41:32.768Z,101301.34
2023-05-03T06:44:08.544Z,101314.63
2023-05-03T06:46:36.785Z,101317.06
2023-05-03T06:49:27.052Z,101321.19
2023-05-03T06:52:05.172Z,101310.72
2023-05-03T06:54:41.666Z,101315.94
2023-05-03T06:57:11.908Z,101311.97
2023-05-03T06:59:56.014Z,101307.63
2023-05-03T07:02:27.645Z,101306.09
2023-05-03T07:05:03.781Z,101306.16
2023-05-03T07:07:37.671Z,101304.91
2023-05-03T07:10:12.294Z,101310.75
2023-05-03T07:12:47.615Z,101316.00
2023-05-03T07:15:20.988Z,101320.06
2023-05-03T07:17:54.664Z,101310.47
2023-05-03T07:20:31.470Z,101311.59
2023-05-03T07:23:00.559Z,101302.59
2023-05-03T07:25:33.288Z,101307.59
2023-05-03T07:28:01.612Z,101303.66
2023-05-03T07:30:32.692Z,101311.34
2023-05-03T07:33:01.558Z,101307.56
2023-05-03T07:35:35.714Z,101304.31
2023-05-03T07:38:12.069Z,101304.03
2023-05-03T07:40:45.810Z,101308.38
2023-05-03T07:43:24.668Z,101305.94
2023-05-03T07:45:55.600Z,101300.25
2023-05-03T07:48:32.804Z,101299.47
2023-05-03T07:51:12.102Z,101299.16
2023-05-03T07:53:45.521Z,101297.28
2023-05-03T07:56:24.582Z,101301.72
2023-05-03T07:59:09.384Z,101299.38
2023-05-03T08:01:45.974Z,101296.69
2023-05-03T08:04:27.458Z,101303.31
2023-05-03T08:07:07.722Z,101297.25
2023-05-03T08:09:46.162Z,101297.25
2023-05-03T08:12:17.145Z,101297.00
2023-05-03T08:14:56.230Z,101306.75
2023-05-03T08:17:40.105Z,101308.78
2023-05-03T08:20:15.853Z,101312.44
2023-05-03T08:22:59.453Z,101309.66
2023-05-03T08:25:40.053Z,101311.25
2023-05-03T08:28:15.527Z,101311.22
2023-05-03T08:30:57.288Z,101321.00
2023-05-03T08:33:39.977Z,101313.69
2023-05-03T08:36:16.891Z,101311.66
2023-05-03T08:38:58.085Z,101312.47
2023-05-03T08:41:30.665Z,101316.50
2023-05-03T08:44:07.004Z,101321.59
2023-05-03T08:46:45.785Z,101324.03
2023-05-03T08:49:17.758Z,101318.75
2023-05-03T08:51:52.457Z,101318.56
2023-05-03T08:54:22.136Z,101319.59
2023-05-03T08:56:54.190Z,101319.09
2023-05-03T08:59:29.708Z,101317.03
2023-05-03T09:02:00.645Z,101313.31
2023-05-03T09:04:37.716Z,101319.75
2023-05-03T09:07:11.881Z,101319.28
2023-05-03T09:09:47.473Z,101322.81
2023-05-03T09:12:41.258Z,101316.63
2023-05-03T09:15:23.727Z,101320.25
2023-05-03T09:18:20.732Z,101314.59
2023-05-03T09:21:02.706Z,101318.69
2023-05-03T09:23:33.982Z,101321.50
2023-05-03T09:26:07.211Z,101316.59
2023-05-03T09:28:46.199Z,101317.75
2023-05-03T09:31:16.923Z,101325.88
2023-05-03T09:33:50.010Z,101321.81
2023-05-03T09:36:23.802Z,101316.59
2023-05-03T09:38:56.146Z,101321.38
2023-05-03T09:41:34.337Z,101314.19
2023-05-03T09:44:05.051Z,101314.50
2023-05-03T09:46:38.195Z,101314.50
2023-05-03T09:49:08.489Z,101321.38
2023-05-03T09:51:38.868Z,101314.06
2023-05-03T09:54:12.859Z,101310.91
2023-05-03T09:56:44.885Z,101317.75
2023-05-03T09:59:17.056Z,101306.81
2023-05-03T10:01:48.895Z,101306.88
2023-05-03T10:04:21.832Z,101308.44
2023-05-03T10:06:53.992Z,101303.63
2023-05-03T10:09:35.837Z,101301.66
2023-05-03T10:12:12.784Z,101304.84
2023-05-03T10:14:42.927Z,101301.22
2023-05-03T10:17:17.923Z,101302.00
2023-05-03T10:20:10.237Z,101308.53
2023-05-03T10:23:06.085Z,101309.28
2023-05-03T10:25:39.386Z,101306.00
2023-05-03T10:28:09.666Z,101298.44
2023-05-03T10:30:44.773Z,101300.97
2023-05-03T10:33:18.392Z,101295.66
2023-05-03T10:36:01.741Z,101299.78
2023-05-03T10:38:35.615Z,101288.34
2023-05-03T10:41:06.905Z,101287.91
2023-05-03T10:43:40.939Z,101292.38
2023-05-03T10:46:36.465Z,101281.88
2023-05-03T10:49:20.923Z,101285.50
2023-05-03T10:51:51.851Z,101288.34
2023-05-03T10:54:21.943Z,101279.53
2023-05-03T10:56:59.272Z,101277.91
2023-05-03T10:59:58.882Z,101274.22
2023-05-03T11:02:34.144Z,101277.88
2023-05-03T11:05:09.412Z,101276.28
2023-05-03T11:07:41.902Z,101271.38
2023-05-03T11:10:23.391Z,101270.13
2023-05-03T11:12:56.242Z,101273.75
2023-05-03T11:15:29.484Z,101271.31
2023-05-03T11:18:00.831Z,101265.81
2023-05-03T11:20:34.804Z,101256.16
2023-05-03T11:23:07.592Z,101255.84
2023-05-03T11:25:40.794Z,101257.06
2023-05-03T11:28:13.174Z,101264.38
2023-05-03T11:30:50.658Z,101263.19
2023-05-03T11:33:21.313Z,101267.69
2023-05-03T11:35:57.929Z,101261.97
2023-05-03T11:38:28.663Z,101254.63
2023-05-03T11:41:01.310Z,101263.47
2023-05-03T11:43:30.600Z,101255.34
2023-05-03T11:46:02.026Z,101254.91
2023-05-03T11:48:36.297Z,101262.97
2023-05-03T11:51:10.969Z,101257.72
2023-05-03T11:53:50.829Z,101259.44
2023-05-03T11:56:22.802Z,101254.13
2023-05-03T11:59:00.848Z,101251.63
2023-05-03T12:01:33.991Z,101255.84
2023-05-03T12:04:05.635Z,101251.09
2023-05-03T12:06:37.943Z,101248.00
2023-05-03T12:09:16.062Z,101257.19
2023-05-03T12:11:52.464Z,101247.94
2023-05-03T12:14:26.227Z,101251.75
2023-05-03T12:17:00.473Z,101259.44
2023-05-03T12:19:38.408Z,101251.59
2023-05-03T12:22:25.632Z,101247.78
2023-05-03T12:25:03.949Z,101244.91
2023-05-03T12:27:38.489Z,101238.16
2023-05-03T12:30:12.338Z,101250.38
2023-05-03T12:32:44.370Z,101260.09
2023-05-03T12:35:28.016Z,101250.69
2023-05-03T12:37:56.613Z,101248.22
2023-05-03T12:40:34.623Z,101251.41
2023-05-03T12:43:03.977Z,101249.94
2023-05-03T12:45:35.216Z,101243.88
2023-05-03T12:48:09.418Z,101249.94
2023-05-03T12:50:39.457Z,101243.47
2023-05-03T12:53:19.804Z,101241.41
2023-05-03T12:55:52.226Z,101245.81
2023-05-03T12:58:52.807Z,101248.22
2023-05-03T13:04:23.542Z,101251.03
2023-05-03T13:06:57.569Z,101246.19
2023-05-03T13:10:12.394Z,101240.94
2023-05-03T13:12:24.354Z,101233.16
2023-05-03T13:14:54.903Z,101239.28
2023-05-03T13:17:28.207Z,101229.09
2023-05-03T13:20:07.362Z,101225.38
2023-05-03T13:22:39.350Z,101227.03
2023-05-03T13:25:13.367Z,101224.78
2023-05-03T13:27:44.320Z,101228.38
2023-05-03T13:30:15.445Z,101229.03
2023-05-03T13:32:50.299Z,101239.06
2023-05-03T13:35:26.206Z,101237.72
2023-05-03T13:37:57.264Z,101240.84
2023-05-03T13:40:25.111Z,101233.31
2023-05-03T13:42:52.956Z,101232.53
2023-05-03T13:45:23.402Z,101220.66
2023-05-03T13:48:09.160Z,101224.53
2023-05-03T13:50:47.093Z,101221.72
2023-05-03T13:53:20.560Z,101219.28
2023-05-03T13:55:48.218Z,101207.94
2023-05-03T13:58:27.365Z,101212.16
2023-05-03T14:00:56.448Z,101212.97
2023-05-03T14:03:27.516Z,101211.84
2023-05-03T14:05:56.160Z,101207.75
2023-05-03T14:08:26.853Z,101206.94
2023-05-03T14:11:00.061Z,101210.94
2023-05-03T14:13:40.466Z,101204.47
2023-05-03T14:16:35.879Z,101208.25
2023-05-03T14:19:10.229Z,101207.00
2023-05-03T14:21:41.682Z,101216.41
2023-05-03T14:24:14.395Z,101212.34
2023-05-03T14:26:46.296Z,101220.06
2023-05-03T14:29:17.405Z,101224.81
2023-05-03T14:31:47.530Z,101228.38
2023-05-03T14:34:15.838Z,101225.88
2023-05-03T14:36:51.042Z,101231.06
2023-05-03T14:39:20.845Z,101227.81
2023-05-03T14:41:51.164Z,101232.84
2023-05-03T14:44:19.106Z,101236.53
2023-05-03T14:46:47.239Z,101232.91
2023-05-03T14:49:24.826Z,101231.31
2023-05-03T14:51:58.340Z,101230.56
2023-05-03T14:54:28.803Z,101240.16
2023-05-03T14:56:56.757Z,101235.41
2023-05-03T14:59:27.214Z,101231.84
2023-05-03T15:02:04.418Z,101236.34
2023-05-03T15:04:32.281Z,101242.00
2023-05-03T15:07:05.326Z,101245.53
2023-05-03T15:09:34.045Z,101252.28
2023-05-03T15:12:05.015Z,101251.59
2023-05-03T15:14:33.173Z,101250.50
2023-05-03T15:17:03.242Z,101261.81
2023-05-03T15:19:34.104Z,101257.25
2023-05-03T15:22:04.851Z,101264.19
2023-05-03T15:24:35.404Z,101271.53
2023-05-03T15:27:09.173Z,101257.53
2023-05-03T15:29:40.694Z,101263.13
2023-05-03T15:32:11.373Z,101267.16
2023-05-03T15:34:47.091Z,101254.69
2023-05-03T15:37:15.416Z,101272.38
2023-05-03T15:39:45.616Z,101255.91
2023-05-03T15:42:17.749Z,101257.38
2023-05-03T15:44:49.836Z,101255.06
2023-05-03T15:47:19.838Z,101250.47
2023-05-03T15:49:54.191Z,101247.59
2023-05-03T15:52:26.427Z,101254.56
2023-05-03T15:54:59.518Z,101260.44
2023-05-03T15:57:27.282Z,101271.97
2023-05-03T15:59:57.656Z,101264.31
2023-05-03T16:02:36.255Z,101266.47
2023-05-03T16:05:07.421Z,101260.78
2023-05-03T16:07:37.252Z,101261.81
2023-05-03T16:10:10.225Z,101258.88
2023-05-03T16:12:40.962Z,101265.13
2023-05-03T16:15:17.290Z,101265.94
2023-05-03T16:17:48.392Z,101263.56
2023-05-03T16:20:21.593Z,101257.94
2023-05-03T16:22:53.123Z,101254.59
2023-05-03T16:25:23.905Z,101254.56
2023-05-03T16:27:54.795Z,101251.84
2023-05-03T16:30:28.383Z,101252.13
2023-05-03T16:32:59.387Z,101252.53
2023-05-03T16:35:28.039Z,101250.47
2023-05-03T16:37:58.053Z,101254.88
2023-05-03T16:40:28.596Z,101245.88
2023-05-03T16:43:01.764Z,101241.56
2023-05-03T16:45:34.975Z,101243.38
2023-05-03T16:48:08.325Z,101244.94
2023-05-03T16:50:42.988Z,101246.91
2023-05-03T16:53:13.792Z,101237.88
2023-05-03T16:55:46.542Z,101248.72
2023-05-03T16:58:16.953Z,101245.56
2023-05-03T17:00:46.015Z,101248.50
2023-05-03T17:03:17.362Z,101243.28
2023-05-03T17:05:50.307Z,101250.59
2023-05-03T17:08:21.315Z,101250.59
2023-05-03T17:10:54.516Z,101248.56
2023-05-03T17:13:23.015Z,101245.75
2023-05-03T17:15:53.137Z,101257.41
2023-05-03T17:18:29.188Z,101248.94
2023-05-03T17:21:01.414Z,101251.34
2023-05-03T17:23:38.404Z,101250.63
2023-05-03T17:26:16.495Z,101257.53
2023-05-03T17:28:49.825Z,101256.31
2023-05-03T17:31:20.482Z,101259.53
2023-05-03T17:33:52.057Z,101257.16
2023-05-03T17:36:27.180Z,101253.94
2023-05-03T17:39:03.235Z,101265.28
2023-05-03T17:41:40.590Z,101263.25
2023-05-03T17:44:14.349Z,101265.31
2023-05-03T17:46:46.606Z,101271.72
2023-05-03T17:49:19.314Z,101274.94
2023-05-03T17:51:50.378Z,101266.84
2023-05-03T17:54:23.793Z,101274.53
2023-05-03T17:56:51.897Z,101273.31
2023-05-03T17:59:28.054Z,101276.19
2023-05-03T18:01:55.877Z,101282.63
2023-05-03T18:04:29.583Z,101285.06
2023-05-03T18:06:57.493Z,101286.69
2023-05-03T18:09:27.930Z,101285.44
2023-05-03T18:12:02.146Z,101293.94
2023-05-03T18:14:37.341Z,101293.59
2023-05-03T18:17:07.494Z,101300.03
2023-05-03T18:19:39.861Z,101294.41
2023-05-03T18:22:08.176Z,101293.97
2023-05-03T18:24:39.501Z,101297.56
2023-05-03T18:27:12.879Z,101299.16
2023-05-03T18:29:48.912Z,101291.09
2023-05-03T18:32:19.431Z,101300.44
2023-05-03T18:34:49.758Z,101295.94
2023-05-03T18:37:23.999Z,101298.38
2023-05-03T18:39:54.938Z,101306.84
2023-05-03T18:42:27.833Z,101302.84
2023-05-03T18:44:57.837Z,101304.03
2023-05-03T18:47:27.983Z,101310.47
2023-05-03T18:49:55.699Z,101318.94
2023-05-03T18:52:29.038Z,101322.63
2023-05-03T18:55:04.805Z,101324.22
2023-05-03T18:57:40.501Z,101325.03
2023-05-03T19:00:14.037Z,101323.00
2023-05-03T19:02:49.969Z,101324.19
2023-05-03T19:05:24.172Z,101333.09
2023-05-03T19:07:56.746Z,101340.34
2023-05-03T19:10:26.448Z,101337.94
2023-05-03T19:12:59.116Z,101348.06
2023-05-03T19:15:30.159Z,101350.91
2023-05-03T19:18:03.346Z,101356.13
2023-05-03T19:20:35.844Z,101350.88
2023-05-03T19:23:08.511Z,101355.31
2023-05-03T19:25:42.337Z,101362.22
2023-05-03T19:28:12.418Z,101354.88
2023-05-03T19:30:45.725Z,101364.59
2023-05-03T19:33:18.891Z,101360.13
2023-05-03T19:35:51.444Z,101355.69
2023-05-03T19:38:21.628Z,101371.84
2023-05-03T19:41:00.976Z,101373.06
2023-05-03T19:43:34.658Z,101377.53
2023-05-03T19:46:10.622Z,101380.38
2023-05-03T19:48:43.652Z,101375.09
2023-05-03T19:51:15.275Z,101386.44
2023-05-03T19:53:49.113Z,101390.88
2023-05-03T19:56:22.002Z,101384.00
2023-05-03T19:58:56.812Z,101395.72
2023-05-03T20:01:26.635Z,101403.41
2023-05-03T20:03:55.172Z,101395.69
2023-05-03T20:06:28.452Z,101402.16
2023-05-03T20:09:04.409Z,101406.59
2023-05-03T20:11:36.974Z,101411.44
2023-05-03T20:14:06.884Z,101413.03
2023-05-03T20:16:40.431Z,101412.59
2023-05-03T20:19:08.259Z,101407.75
2023-05-03T20:21:38.649Z,101408.09
2023-05-03T20:24:11.432Z,101414.19
2023-05-03T20:26:42.316Z,101414.13
2023-05-03T20:29:15.102Z,101407.28
2023-05-03T20:31:48.224Z,101409.22
2023-05-03T20:34:19.190Z,101408.03
2023-05-03T20:36:53.619Z,101412.53
2023-05-03T20:39:24.467Z,101416.16
2023-05-03T20:42:02.428Z,101413.75
2023-05-03T20:44:37.945Z,101418.63
2023-05-03T20:47:05.837Z,101422.22
2023-05-03T20:49:33.877Z,101419.84
2023-05-03T20:52:01.383Z,101415.69
2023-05-03T20:54:31.037Z,101421.34
2023-05-03T20:57:01.445Z,101410.88
2023-05-03T20:59:34.910Z,101420.16
2023-05-03T21:02:07.858Z,101421.81
2023-05-03T21:04:41.483Z,101419.34
2023-05-03T21:07:11.817Z,101420.16
2023-05-03T21:09:45.566Z,101425.44
2023-05-03T21:12:21.896Z,101425.81
2023-05-03T21:14:49.419Z,101424.63
2023-05-03T21:17:21.554Z,101422.53
2023-05-03T21:19:51.922Z,101428.66
2023-05-03T21:22:27.182Z,101417.69
2023-05-03T21:24:57.659Z,101421.81
2023-05-03T21:27:29.919Z,101423.00
2023-05-03T21:30:03.242Z,101422.63
2023-05-03T21:32:30.901Z,101417.78
2023-05-03T21:35:05.861Z,101418.59
2023-05-03T21:37:34.488Z,101411.31
2023-05-03T21:40:11.308Z,101405.94
2023-05-03T21:42:41.935Z,101413.69
2023-05-03T21:45:16.830Z,101409.22
2023-05-03T21:47:49.663Z,101411.59
2023-05-03T21:50:24.909Z,101420.91
2023-05-03T21:52:55.442Z,101418.91
2023-05-03T21:55:25.203Z,101413.63
2023-05-03T21:57:59.068Z,101411.59
2023-05-03T22:00:36.204Z,101418.06
2023-05-03T22:03:05.312Z,101420.09
2023-05-03T22:05:40.929Z,101424.13
2023-05-03T22:08:14.316Z,101428.97
2023-05-03T22:10:46.311Z,101431.41
2023-05-03T22:13:18.087Z,101424.88
2023-05-03T22:15:49.321Z,101427.72
2023-05-03T22:18:19.381Z,101432.56
2023-05-03T22:20:51.774Z,101431.75
2023-05-03T22:23:19.426Z,101426.84
2023-05-03T22:25:52.356Z,101426.47
2023-05-03T22:28:26.914Z,101432.94
2023-05-03T22:31:00.458Z,101429.69
2023-05-03T22:33:30.274Z,101425.22
2023-05-03T22:36:00.944Z,101425.22
2023-05-03T22:38:30.701Z,101430.84
2023-05-03T22:41:03.801Z,101428.03
2023-05-03T22:43:32.015Z,101438.97
2023-05-03T22:46:02.871Z,101438.16
2023-05-03T22:48:34.927Z,101433.69
2023-05-03T22:51:04.962Z,101432.88
2023-05-03T22:53:34.950Z,101435.69
2023-05-03T22:56:08.765Z,101438.53
2023-05-03T22:58:39.102Z,101434.53
2023-05-03T23:01:13.129Z,101439.34
2023-05-03T23:03:43.586Z,101438.53
2023-05-03T23:06:15.091Z,101437.34
2023-05-03T23:08:44.201Z,101438.94
2023-05-03T23:11:16.602Z,101435.69
2023-05-03T23:13:51.860Z,101438.47
2023-05-03T23:16:24.593Z,101436.50
2023-05-03T23:18:55.808Z,101436.09
2023-05-03T23:21:26.598Z,101439.75
2023-05-03T23:23:57.691Z,101431.63
2023-05-03T23:26:28.307Z,101440.94
2023-05-03T23:28:56.274Z,101444.13
2023-05-03T23:31:31.637Z,101445.84
2023-05-03T23:34:00.777Z,101443.38
2023-05-03T23:36:31.374Z,101446.59
2023-05-03T23:39:01.772Z,101447.41
2023-05-03T23:41:34.126Z,101449.47
2023-05-03T23:44:01.594Z,101440.94
2023-05-03T23:46:33.774Z,101430.44
2023-05-03T23:49:04.704Z,101427.16
2023-05-03T23:51:37.237Z,101434.44
2023-05-03T23:54:08.035Z,101427.97
2023-05-03T23:56:41.815Z,101431.63
2023-05-03T23:59:11.632Z,101427.16
